Time;durP1;ratioP1;P1;durP2;ratioP2;P2;SDS_P1;SDS_P2;PMS_P1;PMS_P2;Temp;Humidity;BMP_temperature;BMP_pressure;BME280_temperature;BME280_humidity;BME280_pressure;Samples;Min_cycle;Max_cycle;Signal;HPM_P1;HPM_P2
2022/01/14 00:02:03;;;;;;;24.27;21.33;;;1.80;66.90;;;;;;5009148;28;20172;-84
2022/01/14 00:04:28;;;;;;;24.92;21.75;;;1.80;66.70;;;;;;5008784;28;20412;-85
2022/01/14 00:06:56;;;;;;;22.53;20.00;;;1.80;66.80;;;;;;5010560;28;20192;-84
2022/01/14 00:09:21;;;;;;;22.20;20.00;;;1.80;67.20;;;;;;5009446;28;20612;-84
2022/01/14 00:11:51;;;;;;;23.47;19.43;;;1.80;66.80;;;;;;5009842;28;20261;-84
2022/01/14 00:16:45;;;;;;;20.80;18.60;;;1.80;66.80;;;;;;5012641;28;20466;-83
2022/01/14 00:19:11;;;;;;;20.67;18.53;;;1.80;66.50;;;;;;5011106;28;20412;-84
2022/01/14 00:21:38;;;;;;;21.70;19.58;;;1.80;66.80;;;;;;5012752;28;20443;-85
2022/01/14 00:24:13;;;;;;;20.07;17.97;;;1.80;66.40;;;;;;5010330;28;20184;-85
2022/01/14 00:34:35;;;;;;;21.52;19.23;;;1.70;66.30;;;;;;5011426;28;20424;-83
2022/01/14 00:37:01;;;;;;;24.97;20.93;;;1.80;67.10;;;;;;5009778;28;20570;-84
2022/01/14 00:39:27;;;;;;;20.45;18.33;;;1.80;66.10;;;;;;5010022;28;20185;-84
2022/01/14 00:41:53;;;;;;;22.37;19.60;;;1.70;66.30;;;;;;5010094;28;20540;-83
2022/01/14 00:44:20;;;;;;;23.10;19.83;;;1.80;66.20;;;;;;5009880;28;20408;-84
2022/01/14 00:46:48;;;;;;;25.73;22.48;;;1.80;66.40;;;;;;5009887;28;20424;-84
2022/01/14 00:49:15;;;;;;;24.63;21.92;;;1.80;66.80;;;;;;5010574;28;20606;-83
2022/01/14 00:51:41;;;;;;;23.43;21.13;;;1.80;66.40;;;;;;5010026;28;20216;-84
2022/01/14 00:54:08;;;;;;;24.47;21.87;;;1.80;65.80;;;;;;5010102;28;20524;-85
2022/01/14 00:56:46;;;;;;;24.30;21.80;;;1.80;65.70;;;;;;5009919;28;20210;-85
2022/01/14 00:59:16;;;;;;;27.20;22.07;;;1.80;65.20;;;;;;5010264;28;20539;-84
2022/01/14 01:01:50;;;;;;;23.90;21.40;;;1.80;64.80;;;;;;5010009;28;20412;-83
2022/01/14 01:04:19;;;;;;;24.45;21.95;;;1.80;64.60;;;;;;5010176;28;20176;-84
2022/01/14 01:06:47;;;;;;;24.35;21.85;;;1.90;64.80;;;;;;5009485;28;20216;-84
2022/01/14 01:09:14;;;;;;;26.75;23.08;;;1.80;64.80;;;;;;5010320;28;20180;-84
2022/01/14 01:11:52;;;;;;;24.93;22.37;;;1.80;64.60;;;;;;5010418;28;20322;-84
2022/01/14 01:14:28;;;;;;;26.80;21.70;;;1.80;64.00;;;;;;5010262;28;20408;-83
2022/01/14 01:16:53;;;;;;;25.00;22.07;;;1.80;64.00;;;;;;5009961;28;20203;-83
2022/01/14 01:19:20;;;;;;;22.70;20.37;;;1.90;64.80;;;;;;5009811;28;20423;-84
2022/01/14 01:21:46;;;;;;;26.27;20.00;;;1.90;64.20;;;;;;5009469;28;20613;-84
2022/01/14 01:24:14;;;;;;;23.27;20.87;;;1.80;64.80;;;;;;5010205;28;20264;-84
2022/01/14 01:26:41;;;;;;;23.27;20.88;;;1.90;64.90;;;;;;5009874;28;20177;-84
2022/01/14 01:31:40;;;;;;;22.35;20.05;;;1.80;64.70;;;;;;5011153;28;20475;-84
2022/01/14 01:34:09;;;;;;;23.03;20.73;;;1.80;64.80;;;;;;5010184;28;20184;-85
2022/01/14 01:36:37;;;;;;;24.15;21.55;;;1.80;64.50;;;;;;5009165;28;20467;-83
2022/01/14 01:39:05;;;;;;;23.03;20.60;;;1.80;64.80;;;;;;5009328;28;20181;-84
2022/01/14 01:41:33;;;;;;;23.03;20.43;;;1.80;64.80;;;;;;5009435;28;20420;-84
2022/01/14 01:44:00;;;;;;;22.97;20.70;;;1.80;64.80;;;;;;5009357;28;20428;-84
2022/01/14 01:46:27;;;;;;;25.27;20.70;;;1.70;64.70;;;;;;5009502;28;20947;-84
2022/01/14 01:48:53;;;;;;;25.50;21.23;;;1.70;64.70;;;;;;5010707;28;20409;-83
2022/01/14 01:51:20;;;;;;;21.60;19.40;;;1.70;64.70;;;;;;5009712;28;20421;-83
2022/01/14 01:53:47;;;;;;;23.50;20.40;;;1.60;64.70;;;;;;5009050;28;20436;-83
2022/01/14 01:56:14;;;;;;;24.37;21.87;;;1.60;64.60;;;;;;5009539;28;20567;-84
2022/01/14 01:58:40;;;;;;;23.30;20.80;;;1.60;64.80;;;;;;5009683;28;20806;-83
2022/01/14 02:01:07;;;;;;;24.13;21.63;;;1.60;64.70;;;;;;5009530;28;20455;-83
2022/01/14 02:03:37;;;;;;;24.10;20.98;;;1.50;64.70;;;;;;5009513;28;20908;-83
2022/01/14 02:06:03;;;;;;;24.95;22.25;;;1.30;65.20;;;;;;5009743;28;20178;-84
2022/01/14 02:08:29;;;;;;;27.15;21.40;;;1.40;65.70;;;;;;5009408;28;20578;-84
2022/01/14 02:10:56;;;;;;;25.57;21.90;;;1.50;65.50;;;;;;5009178;28;20181;-84
2022/01/14 02:13:22;;;;;;;23.37;20.70;;;1.50;65.40;;;;;;5009495;28;20416;-84
2022/01/14 02:16:01;;;;;;;24.50;21.90;;;1.40;65.20;;;;;;5008913;28;20980;-84
2022/01/14 02:26:52;;;;;;;25.70;23.10;;;1.40;65.80;;;;;;5014084;28;20411;-83
2022/01/14 02:29:19;;;;;;;25.23;22.73;;;1.40;65.80;;;;;;5013249;28;20934;-83
2022/01/14 02:35:08;;;;;;;26.65;23.75;;;1.20;66.00;;;;;;5014177;28;20652;-83
2022/01/14 02:37:34;;;;;;;26.77;23.30;;;1.20;66.10;;;;;;5012606;28;20673;-84
2022/01/14 02:39:59;;;;;;;26.67;23.80;;;1.30;66.60;;;;;;5012388;28;20284;-85
2022/01/14 02:42:25;;;;;;;26.47;23.70;;;1.30;66.20;;;;;;5012871;28;20912;-83
2022/01/14 02:44:56;;;;;;;26.67;23.87;;;1.30;66.00;;;;;;5013828;28;20254;-83
2022/01/14 02:47:22;;;;;;;28.35;25.48;;;1.40;66.40;;;;;;5012422;28;20544;-84
2022/01/14 02:49:48;;;;;;;24.57;22.03;;;1.30;65.30;;;;;;5012412;28;20180;-84
2022/01/14 02:52:13;;;;;;;24.13;21.80;;;1.30;65.70;;;;;;5012182;28;20177;-83
2022/01/14 02:55:02;;;;;;;24.20;21.77;;;1.20;65.20;;;;;;5012395;28;20201;-84
2022/01/14 02:57:25;;;;;;;29.50;22.23;;;1.10;65.90;;;;;;5013479;28;20263;-84
2022/01/14 02:59:51;;;;;;;24.80;22.30;;;1.20;65.50;;;;;;5012044;28;20275;-83
2022/01/14 03:02:18;;;;;;;24.52;21.88;;;1.20;65.80;;;;;;5013608;28;20412;-84
2022/01/14 03:04:44;;;;;;;26.83;24.00;;;1.10;66.00;;;;;;5012177;28;20173;-83
2022/01/14 03:07:10;;;;;;;25.20;22.70;;;1.10;66.20;;;;;;5012258;28;20181;-83
2022/01/14 03:09:37;;;;;;;27.42;24.65;;;1.20;66.80;;;;;;5012522;28;20178;-83
2022/01/14 03:12:03;;;;;;;29.17;26.20;;;1.20;65.80;;;;;;5012150;28;20210;-84
2022/01/14 03:14:29;;;;;;;27.33;24.50;;;1.10;65.80;;;;;;5025606;28;20164;-84
2022/01/14 03:16:58;;;;;;;28.27;25.00;;;1.20;66.10;;;;;;5028042;28;20567;-83
2022/01/14 03:19:25;;;;;;;26.42;23.73;;;1.10;66.40;;;;;;5016505;28;20251;-83
2022/01/14 03:22:20;;;;;;;28.10;25.15;;;1.10;66.50;;;;;;5012919;28;20185;-83
2022/01/14 03:27:08;;;;;;;26.97;24.37;;;1.20;66.20;;;;;;5012656;28;20180;-84
2022/01/14 03:29:34;;;;;;;27.67;24.93;;;1.20;66.10;;;;;;5011535;28;20740;-84
2022/01/14 03:32:00;;;;;;;25.97;23.57;;;1.20;65.90;;;;;;5011628;28;20181;-84
2022/01/14 03:34:26;;;;;;;27.88;24.63;;;1.20;66.10;;;;;;5011661;28;20186;-84
2022/01/14 03:36:52;;;;;;;28.53;25.30;;;1.20;66.40;;;;;;5011053;28;20535;-84
2022/01/14 03:39:18;;;;;;;28.53;24.30;;;1.20;66.80;;;;;;5011987;28;20640;-83
2022/01/14 03:41:44;;;;;;;26.35;23.65;;;1.20;66.50;;;;;;5012176;28;20200;-84
2022/01/14 03:44:10;;;;;;;30.05;25.08;;;1.30;66.70;;;;;;5011846;28;20217;-83
2022/01/14 03:46:36;;;;;;;28.98;25.98;;;1.30;65.80;;;;;;5011875;28;20184;-84
2022/01/14 03:49:02;;;;;;;27.03;24.23;;;1.20;65.70;;;;;;5011441;28;20181;-85
2022/01/14 03:51:28;;;;;;;25.57;23.07;;;1.20;66.20;;;;;;5013713;28;20256;-84
2022/01/14 03:53:55;;;;;;;28.95;24.75;;;1.20;66.40;;;;;;5011433;28;20446;-85
2022/01/14 03:56:22;;;;;;;27.73;24.73;;;1.10;65.90;;;;;;5011449;28;20216;-84
2022/01/14 03:58:49;;;;;;;28.27;25.38;;;1.10;65.20;;;;;;5010881;28;20182;-82
2022/01/14 04:01:14;;;;;;;27.25;24.45;;;1.00;65.80;;;;;;5010802;28;20580;-83
2022/01/14 04:03:41;;;;;;;28.13;25.13;;;0.90;65.90;;;;;;5011085;28;20169;-83
2022/01/14 04:06:07;;;;;;;28.50;25.58;;;1.00;65.80;;;;;;5010708;28;20227;-84
2022/01/14 04:08:33;;;;;;;27.92;25.13;;;0.90;65.70;;;;;;5011128;28;20182;-84
2022/01/14 04:11:02;;;;;;;26.95;24.15;;;0.80;66.60;;;;;;5011025;28;20235;-84
2022/01/14 04:16:02;;;;;;;28.50;25.25;;;0.90;66.40;;;;;;5012111;28;20180;-83
2022/01/14 04:18:28;;;;;;;27.87;24.87;;;0.90;67.00;;;;;;5012744;28;20169;-84
2022/01/14 04:20:54;;;;;;;26.03;23.43;;;1.00;67.40;;;;;;5011113;28;20416;-84
2022/01/14 04:23:22;;;;;;;26.43;23.70;;;1.10;66.70;;;;;;5011570;28;20642;-84
2022/01/14 04:25:51;;;;;;;27.25;24.33;;;1.10;66.40;;;;;;5011732;28;20177;-84
2022/01/14 04:28:18;;;;;;;26.67;24.10;;;1.10;66.50;;;;;;5010776;28;20264;-83
2022/01/14 04:30:44;;;;;;;27.45;24.27;;;1.10;65.90;;;;;;5010817;28;20180;-83
2022/01/14 04:33:10;;;;;;;26.65;23.95;;;1.10;66.50;;;;;;5011381;28;20173;-84
2022/01/14 04:35:36;;;;;;;27.97;25.17;;;1.00;65.10;;;;;;5011032;28;20198;-84
2022/01/14 04:38:02;;;;;;;29.30;25.37;;;1.00;66.00;;;;;;5010628;28;20205;-84
2022/01/14 04:40:28;;;;;;;29.02;25.90;;;1.10;65.80;;;;;;5009454;28;20407;-84
2022/01/14 04:42:57;;;;;;;28.88;25.08;;;1.00;65.90;;;;;;5010492;28;20224;-85
2022/01/14 04:45:41;;;;;;;29.20;26.27;;;1.00;65.60;;;;;;5010999;28;20204;-84
2022/01/14 04:48:10;;;;;;;29.25;26.33;;;1.10;66.00;;;;;;5010809;28;20184;-84
2022/01/14 04:50:35;;;;;;;27.05;23.05;;;1.10;64.80;;;;;;5012328;28;20605;-84
2022/01/14 04:53:02;;;;;;;28.83;25.73;;;1.10;65.90;;;;;;5010457;28;20273;-84
2022/01/14 04:55:28;;;;;;;26.02;23.52;;;1.10;66.10;;;;;;5011280;28;20420;-84
2022/01/14 04:57:55;;;;;;;28.58;25.63;;;1.20;65.70;;;;;;5011075;28;20209;-84
2022/01/14 05:00:23;;;;;;;28.50;25.52;;;1.10;65.80;;;;;;5010960;28;20191;-84
2022/01/14 05:02:52;;;;;;;28.30;25.27;;;1.00;65.50;;;;;;4994434;28;20288;-84
2022/01/14 05:05:21;;;;;;;26.30;23.73;;;1.00;66.70;;;;;;5010818;28;20186;-83
2022/01/14 05:07:48;;;;;;;26.48;23.95;;;1.00;66.10;;;;;;5010573;28;20180;-85
2022/01/14 05:12:55;;;;;;;26.75;24.13;;;1.00;65.60;;;;;;5012470;28;20187;-85
2022/01/14 05:15:21;;;;;;;28.80;26.05;;;1.10;65.80;;;;;;5010708;28;20230;-82
2022/01/14 05:17:48;;;;;;;25.97;23.33;;;1.10;66.70;;;;;;5009891;28;20613;-83
2022/01/14 05:20:14;;;;;;;27.15;24.45;;;1.10;66.00;;;;;;5010264;28;20181;-84
2022/01/14 05:22:40;;;;;;;26.95;24.20;;;1.10;65.90;;;;;;5010276;28;20180;-84
2022/01/14 05:25:08;;;;;;;26.87;23.93;;;1.10;66.30;;;;;;5010544;28;20194;-85
2022/01/14 05:27:35;;;;;;;26.15;23.60;;;1.10;65.90;;;;;;5010178;28;20427;-82
2022/01/14 05:30:00;;;;;;;27.02;24.30;;;1.10;66.20;;;;;;5010493;28;20182;-86
2022/01/14 05:32:27;;;;;;;25.87;23.33;;;1.00;65.80;;;;;;5010626;28;20184;-84
2022/01/14 05:34:53;;;;;;;26.92;24.05;;;1.00;66.00;;;;;;5010821;28;20191;-84
2022/01/14 05:37:19;;;;;;;25.70;23.20;;;1.10;66.30;;;;;;5010206;28;20208;-84
2022/01/14 05:39:44;;;;;;;25.93;23.40;;;1.10;66.10;;;;;;5009723;28;20542;-82
2022/01/14 05:42:11;;;;;;;25.40;22.10;;;1.10;66.20;;;;;;5010980;28;20184;-87
2022/01/14 05:44:37;;;;;;;27.42;24.33;;;1.00;65.00;;;;;;5010696;28;20628;-85
2022/01/14 05:47:04;;;;;;;26.65;23.98;;;1.10;65.50;;;;;;5011203;28;20195;-86
2022/01/14 05:49:30;;;;;;;26.45;24.00;;;1.10;65.00;;;;;;5010600;28;20235;-84
2022/01/14 05:51:56;;;;;;;26.98;24.27;;;1.00;65.10;;;;;;5011216;28;20580;-85
2022/01/14 05:54:22;;;;;;;28.47;24.30;;;1.00;64.10;;;;;;5014700;28;20273;-83
2022/01/14 05:56:50;;;;;;;26.13;23.55;;;1.00;64.10;;;;;;5014525;28;20617;-86
2022/01/14 05:59:15;;;;;;;28.83;24.80;;;1.00;64.70;;;;;;5014305;28;20177;-83
2022/01/14 06:01:42;;;;;;;25.23;22.70;;;1.00;64.70;;;;;;5014744;28;20177;-88
2022/01/14 06:04:08;;;;;;;24.45;22.13;;;1.00;64.20;;;;;;5013979;28;20177;-85
2022/01/14 06:06:35;;;;;;;25.90;22.53;;;1.00;64.60;;;;;;5014944;28;20203;-85
2022/01/14 06:09:01;;;;;;;27.10;24.45;;;1.00;65.00;;;;;;5015967;28;20174;-84
2022/01/14 06:11:27;;;;;;;26.75;24.00;;;1.00;64.60;;;;;;5015334;28;20278;-84
2022/01/14 06:13:53;;;;;;;27.07;24.27;;;1.00;64.40;;;;;;5014730;28;20608;-84
2022/01/14 06:16:19;;;;;;;26.90;24.17;;;1.00;64.40;;;;;;5014636;28;20429;-85
2022/01/14 06:18:45;;;;;;;26.15;22.90;;;1.00;64.10;;;;;;5014822;28;20184;-84
2022/01/14 06:21:11;;;;;;;27.50;23.40;;;1.00;64.70;;;;;;5014453;28;20206;-83
2022/01/14 06:23:37;;;;;;;26.50;23.92;;;1.00;64.70;;;;;;5013883;28;20775;-85
2022/01/14 06:26:03;;;;;;;27.90;24.95;;;1.00;65.20;;;;;;5013046;28;20597;-84
2022/01/14 06:28:29;;;;;;;25.50;22.90;;;1.00;64.60;;;;;;5013800;28;20185;-85
2022/01/14 06:30:55;;;;;;;27.90;23.83;;;1.10;65.00;;;;;;5013643;28;20412;-84
2022/01/14 06:33:21;;;;;;;26.97;24.07;;;1.10;64.50;;;;;;5013424;28;20419;-84
2022/01/14 06:35:49;;;;;;;26.10;23.30;;;1.10;64.80;;;;;;5013372;28;20822;-84
2022/01/14 06:38:15;;;;;;;26.45;23.75;;;1.10;64.60;;;;;;5022465;28;20206;-83
2022/01/14 06:40:41;;;;;;;25.27;22.80;;;1.00;64.90;;;;;;5014102;28;20177;-83
2022/01/14 06:43:07;;;;;;;26.93;24.03;;;1.00;65.30;;;;;;5013477;28;20539;-83
2022/01/14 06:45:33;;;;;;;27.17;24.47;;;1.00;65.30;;;;;;5014056;28;20180;-84
2022/01/14 06:47:59;;;;;;;27.15;24.45;;;1.00;65.60;;;;;;5013439;28;20178;-83
2022/01/14 06:50:26;;;;;;;26.50;23.88;;;1.10;65.00;;;;;;5013284;28;20232;-85
2022/01/14 06:52:52;;;;;;;24.55;22.20;;;1.10;64.70;;;;;;5012830;28;20193;-83
2022/01/14 06:55:18;;;;;;;22.60;20.30;;;1.00;64.90;;;;;;5013069;28;20184;-84
2022/01/14 06:57:44;;;;;;;25.85;23.13;;;1.00;65.80;;;;;;5012545;28;20216;-84
2022/01/14 07:00:12;;;;;;;27.30;23.67;;;1.10;65.30;;;;;;5012122;28;20173;-83
2022/01/14 07:02:38;;;;;;;26.58;23.77;;;1.10;65.10;;;;;;5012826;28;20181;-83
2022/01/14 07:05:06;;;;;;;24.60;21.92;;;1.10;65.30;;;;;;5010998;28;20184;-84
2022/01/14 07:07:32;;;;;;;26.65;23.65;;;1.10;65.30;;;;;;5012348;28;20646;-83
2022/01/14 07:09:58;;;;;;;28.20;21.75;;;1.00;65.90;;;;;;5012954;28;20182;-84
2022/01/14 07:12:30;;;;;;;24.10;21.70;;;1.00;65.50;;;;;;5013035;28;20179;-84
2022/01/14 07:14:59;;;;;;;25.27;22.67;;;1.00;65.40;;;;;;5013157;28;20177;-84
2022/01/14 07:17:26;;;;;;;25.25;22.92;;;0.90;65.30;;;;;;5012842;28;20658;-82
2022/01/14 07:19:54;;;;;;;24.25;21.85;;;1.00;64.80;;;;;;5012658;28;20177;-84
2022/01/14 07:22:20;;;;;;;26.23;22.85;;;1.00;65.00;;;;;;5012644;28;20692;-84
2022/01/14 07:24:47;;;;;;;24.90;22.65;;;1.00;64.90;;;;;;5013814;28;20180;-83
2022/01/14 07:27:13;;;;;;;26.52;23.77;;;0.90;64.60;;;;;;5013531;28;20188;-83
2022/01/14 07:29:39;;;;;;;31.90;23.52;;;0.90;65.30;;;;;;5012455;28;20183;-84
2022/01/14 07:32:05;;;;;;;31.80;24.87;;;0.90;65.30;;;;;;5012430;28;20302;-83
2022/01/14 07:34:31;;;;;;;25.35;22.83;;;0.90;64.30;;;;;;5012494;28;20185;-82
2022/01/14 07:36:57;;;;;;;32.45;23.13;;;0.90;65.20;;;;;;5012475;28;20205;-82
2022/01/14 07:39:23;;;;;;;27.37;24.47;;;1.00;64.10;;;;;;5012322;28;20267;-82
2022/01/14 07:41:53;;;;;;;27.83;24.47;;;1.00;64.00;;;;;;5012528;28;20182;-83
2022/01/14 07:44:19;;;;;;;25.25;22.63;;;0.90;63.90;;;;;;5013986;28;20400;-82
2022/01/14 07:46:47;;;;;;;25.73;23.15;;;0.90;64.50;;;;;;5012762;28;20185;-82
2022/01/14 07:49:13;;;;;;;26.27;23.23;;;0.80;63.80;;;;;;5012726;28;20222;-83
2022/01/14 07:51:39;;;;;;;29.05;22.98;;;0.80;63.80;;;;;;5013917;28;20244;-82
2022/01/14 07:54:08;;;;;;;26.30;23.70;;;0.90;65.00;;;;;;5012468;28;20197;-84
2022/01/14 07:56:35;;;;;;;27.95;24.80;;;0.90;63.90;;;;;;5012736;28;20460;-84
2022/01/14 07:59:00;;;;;;;26.13;23.55;;;0.90;64.50;;;;;;5013072;28;20183;-83
2022/01/14 08:01:27;;;;;;;25.23;22.63;;;0.90;64.60;;;;;;5012990;28;20177;-85
2022/01/14 08:03:53;;;;;;;26.08;22.83;;;0.90;64.00;;;;;;5012838;28;20184;-84
2022/01/14 08:06:22;;;;;;;25.15;22.15;;;1.10;64.20;;;;;;5012626;28;20181;-84
2022/01/14 08:08:47;;;;;;;26.40;23.55;;;1.10;64.00;;;;;;5003139;28;20180;-84
2022/01/14 08:11:13;;;;;;;26.80;23.90;;;1.10;63.70;;;;;;5000529;28;20211;-85
2022/01/14 08:13:39;;;;;;;25.67;22.60;;;1.10;64.10;;;;;;5001680;28;20416;-84
2022/01/14 08:16:05;;;;;;;25.83;23.27;;;1.10;64.10;;;;;;5001358;28;20174;-84
2022/01/14 08:18:31;;;;;;;26.35;22.83;;;1.10;63.80;;;;;;4992392;28;20685;-84
2022/01/14 08:20:56;;;;;;;26.87;22.93;;;1.20;64.20;;;;;;4992058;28;20182;-84
2022/01/14 08:23:22;;;;;;;23.93;21.53;;;1.20;64.20;;;;;;4994806;28;20185;-84
2022/01/14 08:25:52;;;;;;;24.70;22.17;;;1.20;63.70;;;;;;4992556;28;20421;-82
2022/01/14 08:28:20;;;;;;;24.50;22.10;;;1.40;63.70;;;;;;5010849;28;20181;-84
2022/01/14 08:30:46;;;;;;;23.63;21.17;;;1.40;63.80;;;;;;5010910;28;20204;-84
2022/01/14 08:33:15;;;;;;;25.07;22.37;;;1.40;63.70;;;;;;5013097;28;20642;-84
2022/01/14 08:35:41;;;;;;;24.75;21.35;;;1.40;63.50;;;;;;5012010;28;20232;-84
2022/01/14 08:38:09;;;;;;;23.98;21.58;;;1.40;62.40;;;;;;5011421;28;20201;-84
2022/01/14 08:40:35;;;;;;;22.10;19.83;;;1.40;62.30;;;;;;5011320;28;20255;-83
2022/01/14 08:43:01;;;;;;;24.70;22.00;;;1.50;62.70;;;;;;5011423;28;20432;-82
2022/01/14 08:45:27;;;;;;;25.93;20.90;;;1.50;62.70;;;;;;5011481;28;20182;-83
2022/01/14 08:47:54;;;;;;;23.07;20.50;;;1.50;63.20;;;;;;5011303;28;20515;-83
2022/01/14 08:50:26;;;;;;;22.60;20.25;;;1.60;62.40;;;;;;5011385;28;20551;-82
2022/01/14 08:52:52;;;;;;;23.93;21.30;;;1.60;61.80;;;;;;5010774;28;20201;-83
2022/01/14 08:55:19;;;;;;;22.90;20.60;;;1.60;62.10;;;;;;5012331;28;20777;-83
2022/01/14 08:57:46;;;;;;;22.77;20.37;;;1.70;61.60;;;;;;5010879;28;20452;-84
2022/01/14 09:00:13;;;;;;;22.08;19.98;;;1.70;61.70;;;;;;5011202;28;20411;-84
2022/01/14 09:02:39;;;;;;;23.60;21.10;;;1.70;61.20;;;;;;5011642;28;20193;-83
2022/01/14 09:05:05;;;;;;;22.60;20.40;;;1.70;61.50;;;;;;5011604;28;20922;-83
2022/01/14 09:07:31;;;;;;;20.65;18.48;;;1.80;61.80;;;;;;5011417;28;20184;-84
2022/01/14 09:09:57;;;;;;;19.57;17.67;;;1.90;61.40;;;;;;5011665;28;20177;-83
2022/01/14 09:12:23;;;;;;;22.83;18.53;;;2.00;59.90;;;;;;5012047;28;20181;-83
2022/01/14 09:14:49;;;;;;;19.03;17.10;;;2.00;59.60;;;;;;5012579;28;20186;-84
2022/01/14 09:17:16;;;;;;;20.03;18.10;;;2.00;59.90;;;;;;5012090;28;20214;-83
2022/01/14 09:19:41;;;;;;;18.00;16.30;;;2.10;60.00;;;;;;5010850;28;20912;-83
2022/01/14 09:22:07;;;;;;;18.90;17.20;;;2.10;60.00;;;;;;5010586;28;20452;-83
2022/01/14 09:24:34;;;;;;;20.17;18.07;;;2.20;60.00;;;;;;5010881;28;20262;-84
2022/01/14 09:27:00;;;;;;;20.90;18.70;;;2.30;59.90;;;;;;5010549;28;20423;-83
2022/01/14 09:29:26;;;;;;;19.60;17.70;;;2.30;59.50;;;;;;5010941;28;20213;-82
2022/01/14 09:31:52;;;;;;;20.30;18.13;;;2.30;60.20;;;;;;5010248;28;20466;-83
2022/01/14 09:34:17;;;;;;;20.17;18.17;;;2.40;59.60;;;;;;5010693;28;20177;-83
2022/01/14 09:36:43;;;;;;;19.37;17.47;;;2.40;59.50;;;;;;5010212;28;20232;-84
2022/01/14 09:39:09;;;;;;;23.43;18.30;;;2.50;58.60;;;;;;5009977;28;20204;-83
2022/01/14 09:41:35;;;;;;;20.13;18.00;;;2.50;58.80;;;;;;5010709;28;20921;-83
2022/01/14 09:44:01;;;;;;;20.53;17.10;;;2.60;57.50;;;;;;5009900;28;20173;-82
2022/01/14 09:46:27;;;;;;;20.20;18.10;;;2.60;58.00;;;;;;5010388;28;20408;-82
2022/01/14 09:48:54;;;;;;;16.90;14.97;;;2.70;58.70;;;;;;5010086;28;20424;-83
2022/01/14 09:51:20;;;;;;;21.50;16.90;;;2.80;57.90;;;;;;5010121;28;20256;-84
2022/01/14 09:53:46;;;;;;;21.13;18.63;;;2.90;57.60;;;;;;5010371;28;20519;-85
2022/01/14 09:56:20;;;;;;;20.70;18.70;;;2.90;57.40;;;;;;5010500;28;20427;-86
2022/01/14 09:58:48;;;;;;;22.07;17.87;;;3.00;56.70;;;;;;5010145;28;20412;-84
2022/01/14 10:01:22;;;;;;;20.77;18.67;;;3.00;57.20;;;;;;5004559;28;20451;-84
2022/01/14 10:04:02;;;;;;;22.80;20.47;;;3.00;55.40;;;;;;5010546;28;20431;-84
2022/01/14 10:06:45;;;;;;;22.67;20.07;;;3.10;56.20;;;;;;4995645;28;20457;-84
2022/01/14 10:09:20;;;;;;;21.43;18.50;;;3.20;56.20;;;;;;4990800;28;20417;-84
2022/01/14 10:12:26;;;;;;;22.03;19.33;;;3.20;56.30;;;;;;4990847;28;20932;-84
2022/01/14 10:15:06;;;;;;;20.17;17.87;;;3.30;56.40;;;;;;4988759;28;20413;-84
2022/01/14 10:17:35;;;;;;;24.60;18.10;;;3.30;56.40;;;;;;4991270;28;20471;-85
2022/01/14 10:20:03;;;;;;;19.77;16.60;;;3.40;56.50;;;;;;4990390;28;20849;-83
2022/01/14 10:22:32;;;;;;;22.77;18.87;;;3.40;56.50;;;;;;4990524;28;20417;-83
2022/01/14 10:25:07;;;;;;;20.57;18.37;;;3.50;55.80;;;;;;4990348;28;20508;-84
2022/01/14 10:27:54;;;;;;;22.00;19.67;;;3.50;54.90;;;;;;4990624;28;20921;-84
2022/01/14 10:30:21;;;;;;;23.20;20.53;;;3.50;54.50;;;;;;4990481;28;20505;-84
2022/01/14 10:33:02;;;;;;;21.93;19.17;;;3.50;53.70;;;;;;4990839;28;20420;-84
2022/01/14 10:35:30;;;;;;;38.43;21.47;;;3.50;54.60;;;;;;4991296;28;20519;-84
2022/01/14 10:37:59;;;;;;;20.97;18.87;;;3.50;53.80;;;;;;4990710;28;20821;-85
2022/01/14 10:40:28;;;;;;;21.13;19.00;;;3.50;53.00;;;;;;4993578;28;20483;-84
2022/01/14 10:43:02;;;;;;;23.10;19.90;;;3.60;54.30;;;;;;4994768;28;20425;-84
2022/01/14 10:45:28;;;;;;;22.43;19.43;;;3.60;54.00;;;;;;4994140;28;20413;-84
2022/01/14 10:48:01;;;;;;;22.50;18.57;;;3.60;53.60;;;;;;4994044;28;20424;-84
2022/01/14 10:50:44;;;;;;;25.67;19.23;;;3.60;53.10;;;;;;4993928;28;20968;-84
2022/01/14 10:53:16;;;;;;;20.63;18.47;;;3.60;54.00;;;;;;4994371;28;20468;-84
2022/01/14 10:55:47;;;;;;;23.37;18.97;;;3.70;53.70;;;;;;4993736;28;20984;-85
2022/01/14 10:58:27;;;;;;;21.80;18.50;;;3.70;52.90;;;;;;4993625;28;20523;-83
2022/01/14 11:00:59;;;;;;;22.97;18.80;;;3.80;54.60;;;;;;4993260;28;20424;-83
2022/01/14 11:03:37;;;;;;;24.90;19.20;;;3.90;53.60;;;;;;4993321;28;20425;-85
2022/01/14 11:06:15;;;;;;;21.07;19.00;;;3.90;53.70;;;;;;4993850;28;20417;-83
2022/01/14 11:08:40;;;;;;;21.90;19.73;;;4.00;53.10;;;;;;4995060;28;20417;-84
2022/01/14 11:11:06;;;;;;;19.93;17.43;;;4.00;52.20;;;;;;4993147;28;20423;-89
2022/01/14 11:13:33;;;;;;;22.80;20.17;;;4.10;52.40;;;;;;4994900;28;20174;-85
2022/01/14 11:15:59;;;;;;;22.37;19.87;;;4.10;53.80;;;;;;4995521;28;20178;-87
2022/01/14 11:18:25;;;;;;;22.57;19.20;;;4.10;54.00;;;;;;4995495;28;20989;-86
2022/01/14 11:23:40;;;;;;;20.70;18.50;;;4.20;51.90;;;;;;4995726;28;20498;-78
2022/01/14 11:26:16;;;;;;;26.70;21.30;;;4.20;52.30;;;;;;4993878;28;20425;-83
2022/01/14 11:28:44;;;;;;;21.93;19.30;;;4.20;52.40;;;;;;4994087;28;20177;-82
2022/01/14 11:31:33;;;;;;;25.37;22.37;;;4.20;52.40;;;;;;4993749;28;20756;-83
2022/01/14 11:34:01;;;;;;;23.13;19.20;;;4.20;53.00;;;;;;4993442;28;20424;-84
2022/01/14 11:36:52;;;;;;;26.33;19.17;;;4.20;53.90;;;;;;4993730;28;20405;-83
2022/01/14 11:39:20;;;;;;;23.80;21.07;;;4.20;54.10;;;;;;4994437;28;20517;-82
2022/01/14 11:41:51;;;;;;;22.57;20.27;;;4.20;53.80;;;;;;4993699;28;20405;-83
2022/01/14 11:44:43;;;;;;;25.37;21.13;;;4.30;52.90;;;;;;4993822;28;20703;-83
2022/01/14 11:47:40;;;;;;;21.87;19.17;;;4.30;54.00;;;;;;4994384;28;20560;-84
2022/01/14 11:50:27;;;;;;;23.03;20.70;;;4.40;53.20;;;;;;4992941;28;20516;-82
2022/01/14 11:52:53;;;;;;;21.80;19.50;;;4.40;50.50;;;;;;4986240;28;20440;-82
2022/01/14 11:55:22;;;;;;;21.33;18.53;;;4.50;51.00;;;;;;4992792;28;20418;-84
2022/01/14 11:57:55;;;;;;;22.63;20.33;;;4.50;51.30;;;;;;4992259;28;20206;-84
2022/01/14 12:00:27;;;;;;;26.03;20.30;;;4.60;51.20;;;;;;4992875;28;20752;-84
2022/01/14 12:02:54;;;;;;;16.73;13.97;;;4.70;51.00;;;;;;4993317;28;20410;-83
2022/01/14 12:05:24;;;;;;;24.40;17.77;;;4.70;51.60;;;;;;4992921;28;20778;-83
2022/01/14 12:08:02;;;;;;;21.47;19.27;;;4.70;50.70;;;;;;4992422;28;20475;-83
2022/01/14 12:10:45;;;;;;;22.87;19.27;;;4.80;50.10;;;;;;4997612;28;20416;-83
2022/01/14 12:13:50;;;;;;;23.27;21.03;;;4.80;50.90;;;;;;5012119;28;20404;-83
2022/01/14 12:18:59;;;;;;;25.70;20.80;;;4.70;52.20;;;;;;5013321;28;20880;-86
2022/01/14 12:21:44;;;;;;;22.13;19.93;;;4.80;52.40;;;;;;5009452;28;20444;-85
2022/01/14 12:24:30;;;;;;;23.00;15.13;;;4.90;50.40;;;;;;5008555;28;20277;-85
2022/01/14 12:27:03;;;;;;;23.03;20.83;;;4.90;51.40;;;;;;4992771;28;20409;-85
2022/01/14 12:29:37;;;;;;;16.97;13.37;;;4.90;51.60;;;;;;5008671;28;20786;-84
2022/01/14 12:32:07;;;;;;;23.30;17.10;;;5.00;49.40;;;;;;4992012;28;20417;-84
2022/01/14 12:34:36;;;;;;;18.80;14.60;;;5.00;50.10;;;;;;5008337;28;20413;-84
2022/01/14 12:37:02;;;;;;;22.53;20.17;;;5.10;49.70;;;;;;4991821;28;20551;-84
2022/01/14 12:39:29;;;;;;;19.90;15.00;;;5.20;50.30;;;;;;4991404;28;20409;-84
2022/01/14 12:41:57;;;;;;;23.13;14.43;;;5.20;49.70;;;;;;4991107;28;20428;-84
2022/01/14 12:44:24;;;;;;;20.50;13.40;;;5.40;48.60;;;;;;4991918;28;20479;-83
2022/01/14 12:47:09;;;;;;;21.77;19.57;;;5.40;49.40;;;;;;4991177;28;20431;-83
2022/01/14 12:49:37;;;;;;;21.00;18.60;;;5.50;49.50;;;;;;4990955;28;20787;-84
2022/01/14 12:52:09;;;;;;;22.57;20.20;;;5.50;48.70;;;;;;4990866;28;20790;-83
2022/01/14 12:54:40;;;;;;;24.80;20.47;;;5.60;48.80;;;;;;4990626;28;20437;-83
2022/01/14 12:57:06;;;;;;;23.00;19.13;;;5.60;47.80;;;;;;4991152;28;20527;-84
2022/01/14 12:59:40;;;;;;;26.83;15.73;;;5.70;48.70;;;;;;4991325;28;20727;-83
2022/01/14 13:02:06;;;;;;;27.20;17.07;;;5.80;48.10;;;;;;4990651;28;20512;-84
2022/01/14 13:04:32;;;;;;;17.73;14.53;;;5.70;48.20;;;;;;4991412;28;20969;-85
2022/01/14 13:07:02;;;;;;;15.80;14.17;;;5.80;48.90;;;;;;4990878;28;20185;-84
2022/01/14 13:09:36;;;;;;;19.50;13.50;;;5.80;48.90;;;;;;4991056;28;20928;-84
2022/01/14 13:12:10;;;;;;;19.90;15.77;;;5.80;49.50;;;;;;4991155;28;20436;-84
2022/01/14 13:14:45;;;;;;;17.67;14.17;;;5.80;48.90;;;;;;4991122;28;20424;-84
2022/01/14 13:17:16;;;;;;;18.47;13.70;;;5.80;49.50;;;;;;4991170;28;21039;-84
2022/01/14 13:19:43;;;;;;;23.50;21.00;;;5.90;49.20;;;;;;4990892;28;20500;-84
2022/01/14 13:22:13;;;;;;;17.73;13.50;;;5.90;49.40;;;;;;4991107;28;20479;-84